Time;durP1;ratioP1;P1;durP2;ratioP2;P2;SDS_P1;SDS_P2;PMS_P1;PMS_P2;Temp;Humidity;BMP_temperature;BMP_pressure;BME280_temperature;BME280_humidity;BME280_pressure;Samples;Min_cycle;Max_cycle;Signal;HPM_P1;HPM_P2
2023/12/22 00:01:43;;;;;;;;;8.00;3.00;;;;;12.48;69.55;101036.13;5057854;28;45776;-69
2023/12/22 00:04:09;;;;;;;;;6.33;3.33;;;;;12.46;68.97;101036.16;5058460;28;45497;-67
2023/12/22 00:06:37;;;;;;;;;4.33;2.00;;;;;12.42;68.84;101036.16;5058993;28;45489;-69
2023/12/22 00:09:03;;;;;;;;;3.67;1.00;;;;;12.02;69.06;100968.78;5058860;28;45658;-73
2023/12/22 00:11:29;;;;;;;;;3.33;2.00;;;;;12.45;68.94;101041.41;5059345;28;45090;-75
2023/12/22 00:13:54;;;;;;;;;5.00;3.00;;;;;12.37;68.54;101023.03;5058668;28;45449;-73
2023/12/22 00:16:21;;;;;;;;;3.00;2.00;;;;;12.01;67.99;100971.41;5059880;28;45534;-73
2023/12/22 00:18:46;;;;;;;;;5.33;2.67;;;;;12.36;67.93;101017.78;5057045;28;46170;-75
2023/12/22 00:21:12;;;;;;;;;3.67;1.00;;;;;11.87;68.14;100951.28;5058729;28;45765;-72
2023/12/22 00:23:38;;;;;;;;;3.67;2.33;;;;;12.37;67.69;101017.78;5059989;28;45467;-67
2023/12/22 00:26:05;;;;;;;;;7.00;3.00;;;;;12.34;67.29;101002.03;5058596;28;45499;-74
2023/12/22 00:28:34;;;;;;;;;3.00;1.00;;;;;12.29;67.06;101015.16;5058032;28;46632;-73
2023/12/22 00:31:01;;;;;;;;;9.00;2.67;;;;;12.10;67.32;100987.13;5056469;28;45465;-76
2023/12/22 00:33:27;;;;;;;;;2.33;2.33;;;;;12.27;66.71;101009.03;5059652;28;45361;-72
2023/12/22 00:35:52;;;;;;;;;2.67;1.00;;;;;11.76;66.50;100912.75;5059588;28;45791;-67
2023/12/22 00:38:19;;;;;;;;;5.00;2.67;;;;;11.98;66.45;100955.66;5059291;28;45841;-75
2023/12/22 00:40:54;;;;;;;;;3.00;1.00;;;;;11.90;66.38;100950.41;5053210;28;45563;-70
2023/12/22 00:43:19;;;;;;;;;5.00;2.00;;;;;12.25;65.94;101017.78;5054278;28;45336;-75
2023/12/22 00:45:45;;;;;;;;;3.00;1.00;;;;;12.20;66.14;101002.03;5059807;28;45359;-69
2023/12/22 00:48:13;;;;;;;;;7.33;2.33;;;;;12.18;65.94;100993.28;5058794;28;46652;-76
2023/12/22 00:50:40;;;;;;;;;4.00;2.00;;;;;12.19;65.79;100987.13;5059207;28;45532;-72
2023/12/22 00:53:06;;;;;;;;;3.33;0.67;;;;;11.83;65.38;100927.63;5060593;28;45492;-75
2023/12/22 00:55:48;;;;;;;;;1.33;1.33;;;;;12.15;65.37;100995.91;5060386;28;45408;-74
2023/12/22 00:58:14;;;;;;;;;2.00;1.00;;;;;12.14;64.86;101007.28;5059327;28;46490;-72
2023/12/22 01:00:43;;;;;;;;;2.00;2.00;;;;;12.04;65.18;100992.41;5059275;28;45475;-67
2023/12/22 01:03:13;;;;;;;;;5.67;2.00;;;;;12.03;65.01;101001.16;5059526;28;45369;-74
2023/12/22 01:05:38;;;;;;;;;3.67;2.00;;;;;12.00;64.91;100993.28;5059937;28;45402;-75
2023/12/22 01:08:04;;;;;;;;;4.00;2.00;;;;;11.45;64.49;100908.34;5060369;28;45472;-74
2023/12/22 01:10:30;;;;;;;;;3.00;2.00;;;;;12.08;65.35;101020.44;5059291;28;45541;-71
2023/12/22 01:12:56;;;;;;;;;4.67;1.67;;;;;12.06;65.15;101022.16;5061111;28;45637;-68
2023/12/22 01:15:22;;;;;;;;;8.33;2.67;;;;;12.00;65.06;101007.28;5059731;28;45241;-71
2023/12/22 01:17:48;;;;;;;;;2.00;2.00;;;;;11.92;65.41;101005.53;5059198;28;45584;-71
2023/12/22 01:20:14;;;;;;;;;7.33;3.33;;;;;12.06;65.10;101041.41;5058342;28;45443;-73
2023/12/22 01:22:39;;;;;;;;;5.33;2.33;;;;;12.05;65.44;101029.19;5069345;28;45425;-71
2023/12/22 01:25:05;;;;;;;;;5.00;3.33;;;;;12.03;65.40;101015.16;5072056;28;45532;-73
2023/12/22 01:27:37;;;;;;;;;2.00;1.33;;;;;12.01;65.64;101010.78;5062884;28;45352;-72
2023/12/22 01:30:07;;;;;;;;;0.33;0.33;;;;;11.82;65.18;100984.50;5061320;28;46210;-74
2023/12/22 01:32:35;;;;;;;;;5.67;2.00;;;;;11.59;65.49;100941.63;5058999;28;45449;-73
2023/12/22 01:35:03;;;;;;;;;4.00;2.67;;;;;12.05;65.43;101017.78;5057932;28;45529;-74
2023/12/22 01:37:30;;;;;;;;;4.00;2.33;;;;;12.03;65.96;101023.03;5058848;28;45512;-72
2023/12/22 01:39:55;;;;;;;;;5.33;3.00;;;;;11.60;66.17;100956.47;5060315;28;45428;-75
2023/12/22 01:42:21;;;;;;;;;4.33;2.00;;;;;11.91;66.64;101020.38;5060864;28;46345;-75
2023/12/22 01:44:46;;;;;;;;;6.00;3.67;;;;;11.79;67.38;100997.63;5058729;28;45472;-75
2023/12/22 01:47:14;;;;;;;;;8.00;3.00;;;;;11.74;67.83;100985.34;5060009;28;46206;-74
2023/12/22 01:49:40;;;;;;;;;5.67;2.33;;;;;11.65;68.42;100965.22;5058264;28;45323;-73
2023/12/22 01:52:07;;;;;;;;;5.67;3.33;;;;;11.94;68.72;101012.53;5059734;28;45377;-72
2023/12/22 01:54:34;;;;;;;;;3.67;2.00;;;;;11.93;68.83;101002.91;5059362;28;45387;-74
2023/12/22 01:57:00;;;;;;;;;2.33;2.00;;;;;11.57;68.82;100930.25;5058827;28;46191;-74
2023/12/22 01:59:26;;;;;;;;;1.00;1.00;;;;;11.91;69.45;101006.38;5058910;28;45536;-75
2023/12/22 02:01:53;;;;;;;;;5.67;2.33;;;;;11.90;69.42;101012.53;5058663;28;45291;-75
2023/12/22 02:04:20;;;;;;;;;3.33;1.67;;;;;11.90;69.73;101017.78;5068642;28;45556;-71
2023/12/22 02:06:46;;;;;;;;;6.00;2.00;;;;;11.65;70.25;100991.44;5061575;28;46337;-72
2023/12/22 02:09:11;;;;;;;;;5.67;2.00;;;;;11.91;70.11;101041.38;5059509;28;45505;-74
2023/12/22 02:11:41;;;;;;;;;2.33;1.33;;;;;11.74;70.66;101020.34;5060449;28;45499;-75
2023/12/22 02:14:08;;;;;;;;;4.67;2.00;;;;;11.90;71.13;101050.16;5059860;28;45532;-74
2023/12/22 02:16:46;;;;;;;;;2.33;1.00;;;;;11.87;70.87;101058.03;5058794;28;46203;-72
2023/12/22 02:19:35;;;;;;;;;4.00;2.33;;;;;11.86;71.47;101059.75;5060320;28;45487;-74
2023/12/22 02:22:02;;;;;;;;;3.00;2.00;;;;;11.86;71.46;101051.88;5052202;28;45505;-73
2023/12/22 02:24:30;;;;;;;;;2.00;2.00;;;;;11.86;71.42;101050.97;5074260;27;45368;-74
2023/12/22 02:27:05;;;;;;;;;4.00;2.00;;;;;11.65;71.11;101008.09;5058378;28;45262;-74
2023/12/22 02:29:43;;;;;;;;;3.00;1.00;;;;;11.79;71.31;101052.72;5058369;28;45526;-73
2023/12/22 02:32:17;;;;;;;;;2.67;2.33;;;;;11.77;71.16;101048.31;5058022;28;45414;-75
2023/12/22 02:34:49;;;;;;;;;3.33;2.00;;;;;11.90;70.85;101065.91;5059542;28;45425;-72
2023/12/22 02:37:16;;;;;;;;;4.00;1.67;;;;;11.78;71.04;101050.09;5057750;28;46653;-74
2023/12/22 02:39:43;;;;;;;;;2.67;1.33;;;;;11.62;71.22;101029.06;5058041;28;45353;-73
2023/12/22 02:42:09;;;;;;;;;5.00;2.00;;;;;11.82;70.79;101065.84;5054249;28;45393;-73
2023/12/22 02:44:36;;;;;;;;;4.67;2.00;;;;;11.58;71.06;101019.44;5053945;28;45377;-74
2023/12/22 02:47:02;;;;;;;;;1.33;1.00;;;;;11.86;71.05;101065.00;5057445;28;45528;-72
2023/12/22 02:49:28;;;;;;;;;2.00;2.00;;;;;11.13;70.73;100966.00;5058615;28;45426;-71
2023/12/22 02:51:53;;;;;;;;;4.00;3.00;;;;;11.65;70.83;101050.06;5057451;28;45517;-71
2023/12/22 02:54:19;;;;;;;;;4.00;1.00;;;;;11.49;70.78;101010.69;5057431;28;45551;-68
2023/12/22 02:56:48;;;;;;;;;4.00;2.00;;;;;11.92;70.77;101079.03;5041734;28;47703;-68
2023/12/22 02:59:14;;;;;;;;;6.00;1.33;;;;;11.93;70.86;101086.88;5057472;28;45448;-68
2023/12/22 03:01:40;;;;;;;;;6.67;2.00;;;;;11.96;70.95;101075.50;5057221;28;45388;-68
2023/12/22 03:04:05;;;;;;;;;4.00;3.67;;;;;11.91;70.94;101051.88;5057225;28;45831;-70
2023/12/22 03:06:31;;;;;;;;;3.00;1.33;;;;;11.71;71.09;101015.09;5057132;28;45465;-69
2023/12/22 03:09:00;;;;;;;;;3.33;2.00;;;;;11.98;70.59;101052.78;5058554;28;45352;-71
2023/12/22 03:11:26;;;;;;;;;2.33;1.00;;;;;11.97;70.54;101049.28;5058882;28;45364;-68
2023/12/22 03:13:52;;;;;;;;;4.33;1.67;;;;;11.93;70.38;101041.41;5058469;28;45567;-69
2023/12/22 03:16:18;;;;;;;;;2.33;2.00;;;;;11.94;70.23;101038.78;5057633;28;45749;-68
2023/12/22 03:18:43;;;;;;;;;5.33;1.00;;;;;11.84;70.13;101024.75;5057315;28;45666;-66
2023/12/22 03:21:17;;;;;;;;;7.00;1.00;;;;;12.01;69.48;101045.78;5056958;28;45527;-72
2023/12/22 03:23:42;;;;;;;;;4.67;2.00;;;;;11.77;69.80;101001.09;5057196;28;45575;-73
2023/12/22 03:26:08;;;;;;;;;4.00;2.00;;;;;12.02;69.34;101038.78;5056623;28;45593;-67
2023/12/22 03:28:33;;;;;;;;;1.00;0.00;;;;;12.08;69.52;101049.31;5056928;28;46118;-69
2023/12/22 03:31:03;;;;;;;;;3.67;1.00;;;;;11.66;68.73;100980.09;5057545;28;45369;-75
2023/12/22 03:33:29;;;;;;;;;3.33;2.00;;;;;11.95;68.73;101021.28;5058852;28;45275;-73
2023/12/22 03:35:54;;;;;;;;;3.67;1.67;;;;;12.15;68.76;101048.44;5057491;28;46384;-74
2023/12/22 03:38:20;;;;;;;;;2.67;2.00;;;;;12.14;68.29;101058.94;5057695;28;45390;-73
2023/12/22 03:40:45;;;;;;;;;3.67;2.00;;;;;12.14;68.62;101051.06;5057668;28;45331;-68
2023/12/22 03:43:11;;;;;;;;;3.33;2.00;;;;;12.08;68.64;101037.03;5057429;28;45328;-68
2023/12/22 03:45:36;;;;;;;;;3.67;1.33;;;;;11.93;68.27;101015.16;5055414;28;46515;-73
2023/12/22 03:48:03;;;;;;;;;4.00;2.00;;;;;11.98;68.87;101018.66;5055939;28;46202;-74
2023/12/22 03:50:28;;;;;;;;;2.33;2.00;;;;;11.93;68.16;101007.28;5059544;28;45458;-74
2023/12/22 03:52:54;;;;;;;;;5.00;2.33;;;;;12.15;68.79;101034.41;5062175;28;45584;-73
2023/12/22 03:55:20;;;;;;;;;4.00;2.00;;;;;11.44;68.60;100924.13;5057559;28;45535;-67
2023/12/22 03:57:46;;;;;;;;;2.00;2.00;;;;;12.23;68.63;101057.19;5055674;28;45806;-73
2023/12/22 04:00:13;;;;;;;;;3.00;1.33;;;;;12.25;68.68;101049.31;5057058;28;45421;-74
2023/12/22 04:02:39;;;;;;;;;5.00;1.00;;;;;12.23;68.61;101045.81;5057166;28;45317;-71
2023/12/22 04:05:05;;;;;;;;;2.00;2.00;;;;;12.14;68.90;101028.28;5057267;28;46268;-72
2023/12/22 04:07:31;;;;;;;;;3.00;1.33;;;;;11.40;69.33;100922.34;5057513;28;45419;-72
2023/12/22 04:09:56;;;;;;;;;1.00;1.00;;;;;12.01;68.89;101040.53;5056796;28;45632;-72
2023/12/22 04:12:29;;;;;;;;;1.00;1.00;;;;;12.18;69.36;101063.31;5057255;28;45322;-71
2023/12/22 04:14:54;;;;;;;;;2.33;1.33;;;;;12.20;69.41;101056.31;5056760;28;46171;-70
2023/12/22 04:17:20;;;;;;;;;4.00;1.33;;;;;12.20;69.58;101059.81;5056402;28;45376;-68
2023/12/22 04:19:52;;;;;;;;;2.00;1.67;;;;;12.21;69.53;101058.06;5057343;28;45287;-74
2023/12/22 04:22:24;;;;;;;;;1.67;1.67;;;;;12.22;69.80;101047.56;5059569;28;45523;-70
2023/12/22 04:24:50;;;;;;;;;4.00;1.67;;;;;12.22;70.25;101058.06;5058358;28;47069;-70
2023/12/22 04:27:16;;;;;;;;;2.33;1.33;;;;;12.08;71.14;101030.94;5059687;28;45486;-68
2023/12/22 04:29:44;;;;;;;;;3.00;1.00;;;;;11.86;71.74;101006.34;5060209;28;45403;-72
2023/12/22 04:32:10;;;;;;;;;1.33;0.00;;;;;11.93;72.59;101023.03;5059529;28;45515;-69
2023/12/22 04:34:35;;;;;;;;;4.00;1.00;;;;;12.10;74.33;101055.41;5058171;28;46193;-70
2023/12/22 04:37:01;;;;;;;;;1.00;1.00;;;;;12.07;74.92;101061.53;5059857;28;45437;-74
2023/12/22 04:39:27;;;;;;;;;2.00;0.00;;;;;11.28;75.60;100917.97;5060386;28;45226;-71
2023/12/22 04:41:52;;;;;;;;;0.67;0.67;;;;;12.03;76.46;101048.41;5067380;28;45732;-70
2023/12/22 04:44:18;;;;;;;;;4.00;1.00;;;;;11.66;76.84;101009.84;5060875;28;46497;-71
2023/12/22 04:46:44;;;;;;;;;2.67;1.00;;;;;11.98;76.95;101044.91;5060348;28;45393;-73
2023/12/22 04:49:10;;;;;;;;;2.00;0.67;;;;;11.95;77.51;101052.78;5061473;28;45231;-68
2023/12/22 04:51:35;;;;;;;;;3.33;1.00;;;;;11.94;77.41;101053.66;5059797;28;45519;-69
2023/12/22 04:54:02;;;;;;;;;3.67;0.67;;;;;11.66;77.85;100999.34;5057717;28;45558;-68
2023/12/22 04:56:27;;;;;;;;;1.00;1.00;;;;;11.34;77.52;100952.06;5075271;28;45572;-71
2023/12/22 04:58:53;;;;;;;;;0.67;0.67;;;;;11.79;77.70;101041.34;5059959;28;45947;-73
2023/12/22 05:01:19;;;;;;;;;1.00;1.00;;;;;11.77;78.19;101022.09;5060041;28;45453;-72
2023/12/22 05:03:48;;;;;;;;;0.33;0.00;;;;;11.86;77.83;101058.84;5058756;28;46004;-72
2023/12/22 05:06:14;;;;;;;;;0.67;0.33;;;;;11.84;78.25;101040.50;5059154;28;45878;-71
2023/12/22 05:08:40;;;;;;;;;1.00;1.00;;;;;11.65;78.43;101029.09;5060168;28;45388;-72
2023/12/22 05:11:05;;;;;;;;;2.00;0.00;;;;;11.74;77.84;101033.44;5061162;28;45430;-72
2023/12/22 05:13:32;;;;;;;;;4.33;1.00;;;;;11.78;78.19;101050.97;5058433;28;45516;-74
2023/12/22 05:15:57;;;;;;;;;3.67;0.67;;;;;11.86;78.60;101059.75;5059131;28;45999;-71
2023/12/22 05:18:25;;;;;;;;;1.00;1.00;;;;;11.67;78.26;101026.44;5059201;28;45313;-74
2023/12/22 05:20:53;;;;;;;;;2.00;0.00;;;;;11.87;78.42;101065.91;5059487;28;45314;-75
2023/12/22 05:23:20;;;;;;;;;0.33;0.33;;;;;11.86;78.90;101066.72;5059029;28;45671;-71
2023/12/22 05:25:45;;;;;;;;;1.00;1.00;;;;;11.03;79.08;100922.25;5059242;28;45436;-72
2023/12/22 05:28:11;;;;;;;;;0.00;0.00;;;;;11.49;79.35;100994.94;5059652;28;45422;-75
2023/12/22 05:30:37;;;;;;;;;0.00;0.00;;;;;11.45;79.93;100989.66;5060807;28;45520;-71
2023/12/22 05:33:02;;;;;;;;;2.33;0.67;;;;;11.85;79.69;101057.09;5059345;28;45571;-73
2023/12/22 05:35:37;;;;;;;;;3.00;0.00;;;;;11.84;79.02;101060.59;5061186;28;45176;-72
2023/12/22 05:38:03;;;;;;;;;0.33;0.33;;;;;11.85;79.21;101047.47;5059192;28;45400;-71
2023/12/22 05:40:31;;;;;;;;;0.67;0.67;;;;;11.50;79.43;100991.44;5055752;28;45497;-73
2023/12/22 05:43:14;;;;;;;;;1.00;0.00;;;;;11.82;79.32;101049.25;5057905;28;46234;-68
2023/12/22 05:45:44;;;;;;;;;0.00;0.00;;;;;11.71;79.33;101036.09;5056729;28;45340;-70
2023/12/22 05:48:10;;;;;;;;;0.00;0.00;;;;;11.23;79.15;100953.78;5050630;28;45528;-71
2023/12/22 05:50:35;;;;;;;;;2.00;0.33;;;;;11.84;78.57;101058.88;5058411;28;45493;-72
2023/12/22 05:53:04;;;;;;;;;2.33;0.00;;;;;11.85;78.50;101047.47;5057816;28;46518;-72
2023/12/22 05:55:31;;;;;;;;;0.33;0.00;;;;;11.74;78.65;101032.59;5059610;28;45232;-73
2023/12/22 05:57:57;;;;;;;;;3.67;0.33;;;;;11.84;78.74;101044.84;5059417;28;45469;-72
2023/12/22 06:00:23;;;;;;;;;0.33;0.00;;;;;11.57;78.67;101006.31;5057199;28;45475;-71
2023/12/22 06:02:48;;;;;;;;;0.67;0.67;;;;;11.51;78.86;100998.41;5058688;28;45392;-71
2023/12/22 06:05:15;;;;;;;;;1.67;0.00;;;;;11.32;79.41;100959.06;5058311;28;45391;-70
2023/12/22 06:07:40;;;;;;;;;1.33;1.00;;;;;11.85;79.48;101055.34;5059330;28;45497;-71
2023/12/22 06:10:09;;;;;;;;;5.67;2.00;;;;;11.85;79.24;101051.84;5059440;28;45467;-71
2023/12/22 06:13:03;;;;;;;;;2.67;0.00;;;;;11.75;79.69;101040.47;5059320;28;45447;-75
2023/12/22 06:15:30;;;;;;;;;0.00;0.00;;;;;11.75;79.71;101036.97;5058505;28;45459;-70
2023/12/22 06:17:56;;;;;;;;;1.00;1.00;;;;;11.45;79.60;100989.66;5057843;28;45578;-72
2023/12/22 06:20:22;;;;;;;;;1.00;1.00;;;;;11.73;79.85;101041.34;5058851;28;46205;-73
2023/12/22 06:22:48;;;;;;;;;2.00;0.00;;;;;11.81;80.24;101066.72;5058901;28;46207;-75
2023/12/22 06:25:13;;;;;;;;;0.00;0.00;;;;;11.72;79.96;101043.09;5058814;28;45545;-70
2023/12/22 06:28:20;;;;;;;;;2.00;1.00;;;;;11.83;80.50;101070.22;5058926;28;45643;-68
2023/12/22 06:30:47;;;;;;;;;1.00;1.00;;;;;11.68;80.44;101049.19;5048670;28;45797;-72
2023/12/22 06:33:14;;;;;;;;;1.00;1.00;;;;;11.56;80.55;101023.81;5057512;28;45504;-71
2023/12/22 06:35:44;;;;;;;;;1.00;1.00;;;;;11.81;80.32;101076.34;5059552;28;45325;-70
2023/12/22 06:38:12;;;;;;;;;1.00;1.00;;;;;11.55;80.29;101018.53;5059923;28;45460;-71
2023/12/22 06:40:41;;;;;;;;;1.00;1.00;;;;;11.81;80.41;101071.09;5057670;28;45496;-68
2023/12/22 06:43:07;;;;;;;;;2.00;1.00;;;;;11.06;80.43;100937.09;5056834;28;45413;-72
2023/12/22 06:45:36;;;;;;;;;3.00;1.00;;;;;11.23;80.71;100956.41;5056124;28;45452;-68
2023/12/22 06:48:03;;;;;;;;;2.00;0.00;;;;;11.68;80.56;101044.81;5057852;28;45582;-72
2023/12/22 06:50:28;;;;;;;;;2.00;0.33;;;;;11.20;80.72;100959.00;5058000;28;45460;-73
2023/12/22 06:52:54;;;;;;;;;2.33;0.00;;;;;11.77;80.73;101054.47;5057275;28;45441;-73
2023/12/22 06:55:20;;;;;;;;;1.00;0.00;;;;;11.78;80.87;101055.34;5057448;28;45393;-71
2023/12/22 06:57:45;;;;;;;;;2.33;1.00;;;;;11.63;81.25;101022.94;5057752;28;45372;-70
2023/12/22 07:00:14;;;;;;;;;1.33;0.00;;;;;11.39;80.72;100984.44;5058673;28;45393;-68
2023/12/22 07:02:40;;;;;;;;;0.00;0.00;;;;;11.80;80.58;101045.72;5056636;28;48168;-70
2023/12/22 07:05:26;;;;;;;;;2.00;0.00;;;;;11.79;80.55;101052.72;5056673;28;45236;-70
2023/12/22 07:07:52;;;;;;;;;3.00;0.67;;;;;11.69;80.87;101035.19;5055895;28;45324;-68
2023/12/22 07:10:17;;;;;;;;;3.00;0.00;;;;;11.77;80.78;101040.44;5058453;28;45475;-68
2023/12/22 07:12:44;;;;;;;;;3.00;1.00;;;;;11.71;81.03;101033.47;5058338;28;46268;-68
2023/12/22 07:15:10;;;;;;;;;0.33;0.00;;;;;11.76;81.08;101042.22;5057233;28;45565;-69
2023/12/22 07:17:36;;;;;;;;;1.67;0.00;;;;;11.67;81.36;101027.34;5057521;28;45698;-70
2023/12/22 07:20:03;;;;;;;;;1.00;0.33;;;;;11.53;81.55;101018.56;5057138;28;46056;-68
2023/12/22 07:22:29;;;;;;;;;1.00;0.33;;;;;11.77;81.88;101057.09;5055941;28;46557;-73
2023/12/22 07:24:55;;;;;;;;;0.33;0.33;;;;;11.26;81.70;100974.75;5056754;28;45842;-72
2023/12/22 07:27:21;;;;;;;;;0.00;0.00;;;;;11.37;81.97;101009.75;5057038;28;45499;-72
2023/12/22 07:29:47;;;;;;;;;1.33;1.00;;;;;10.80;82.14;100909.97;5057464;28;45390;-73
2023/12/22 07:32:12;;;;;;;;;1.00;0.00;;;;;11.76;82.18;101060.56;5057799;28;45374;-66
2023/12/22 07:34:38;;;;;;;;;1.67;1.00;;;;;11.06;81.90;100961.59;5058560;28;45345;-73
2023/12/22 07:37:07;;;;;;;;;1.00;1.00;;;;;11.75;82.27;101066.72;5057614;28;45416;-75
2023/12/22 07:39:33;;;;;;;;;2.00;1.00;;;;;11.60;82.26;101053.53;5058034;28;45741;-68
2023/12/22 07:41:59;;;;;;;;;1.00;1.00;;;;;11.67;82.15;101053.59;5058067;28;46387;-69
2023/12/22 07:44:24;;;;;;;;;0.00;0.00;;;;;11.78;81.64;101078.97;5057273;28;46269;-70
2023/12/22 07:47:00;;;;;;;;;1.00;0.00;;;;;11.54;81.71;101043.91;5056913;28;45439;-73
2023/12/22 07:49:29;;;;;;;;;2.00;1.00;;;;;11.82;81.13;101099.09;5057111;28;45884;-70
2023/12/22 07:51:55;;;;;;;;;1.33;1.00;;;;;11.68;81.30;101068.44;5056001;28;46590;-69
2023/12/22 07:54:25;;;;;;;;;1.00;1.00;;;;;11.83;81.23;101099.09;5056716;28;45332;-74
2023/12/22 07:56:53;;;;;;;;;3.00;2.00;;;;;11.16;81.33;100975.63;5062372;28;45428;-68
2023/12/22 07:59:19;;;;;;;;;3.00;1.00;;;;;11.69;81.78;101077.19;5063557;28;45532;-67
2023/12/22 08:01:45;;;;;;;;;1.33;0.00;;;;;11.70;81.94;101080.66;5068542;28;46558;-68
2023/12/22 08:04:14;;;;;;;;;1.00;1.00;;;;;11.86;82.31;101101.75;5068325;28;45400;-69
2023/12/22 08:06:41;;;;;;;;;1.00;0.00;;;;;11.38;81.78;101024.63;5066036;28;45353;-72
2023/12/22 08:09:06;;;;;;;;;0.00;0.00;;;;;11.13;82.27;100979.09;5062108;28;45475;-74
2023/12/22 08:11:32;;;;;;;;;0.67;0.67;;;;;11.60;82.86;101078.03;5060483;28;46897;-75
2023/12/22 08:13:58;;;;;;;;;0.00;0.00;;;;;11.81;82.72;101094.72;5060053;28;45460;-72
2023/12/22 08:16:24;;;;;;;;;0.33;0.00;;;;;11.67;82.89;101095.56;5059383;28;45436;-67
2023/12/22 08:18:50;;;;;;;;;5.67;1.00;;;;;11.67;83.38;101094.66;5059962;28;45411;-72
2023/12/22 08:21:16;;;;;;;;;0.00;0.00;;;;;11.68;83.83;101101.69;5059617;28;46253;-69
2023/12/22 08:23:46;;;;;;;;;0.00;0.00;;;;;11.54;84.17;101074.53;5061040;28;45329;-75
2023/12/22 08:26:14;;;;;;;;;0.00;0.00;;;;;11.84;84.37;101124.47;5059805;28;45482;-71
2023/12/22 08:28:42;;;;;;;;;2.00;0.00;;;;;11.06;83.88;101002.63;5059209;28;45385;-72
2023/12/22 08:31:07;;;;;;;;;0.00;0.00;;;;;11.35;84.17;101042.97;5059761;28;46450;-73
2023/12/22 08:33:33;;;;;;;;;2.00;0.33;;;;;11.82;84.48;101114.84;5059938;28;45441;-75
2023/12/22 08:36:04;;;;;;;;;2.00;0.33;;;;;11.94;84.42;101120.16;5060677;28;45457;-74
2023/12/22 08:38:30;;;;;;;;;3.00;1.00;;;;;11.93;83.81;101107.88;5058127;28;45382;-74
2023/12/22 08:40:56;;;;;;;;;0.33;0.33;;;;;11.93;83.50;101102.63;5056110;28;45373;-64
2023/12/22 08:43:21;;;;;;;;;0.00;0.00;;;;;12.02;83.15;101105.28;5058816;28;45561;-66
2023/12/22 08:45:51;;;;;;;;;0.00;0.00;;;;;11.63;82.80;101025.56;5058560;28;45376;-65
2023/12/22 08:48:18;;;;;;;;;0.00;0.00;;;;;12.07;82.30;101121.91;5059508;28;45577;-65
2023/12/22 08:50:43;;;;;;;;;1.00;1.00;;;;;11.86;82.62;101100.84;5056576;28;46679;-65
2023/12/22 08:53:09;;;;;;;;;1.33;0.00;;;;;11.42;82.43;101030.75;5058395;28;45456;-64
2023/12/22 08:55:35;;;;;;;;;2.33;1.00;;;;;11.74;82.17;101070.19;5058926;28;45353;-64
2023/12/22 08:58:01;;;;;;;;;1.00;1.00;;;;;12.07;81.59;101126.31;5058776;28;45575;-66
2023/12/22 09:00:26;;;;;;;;;1.67;1.00;;;;;12.08;81.55;101118.44;5058875;28;46062;-65
2023/12/22 09:03:05;;;;;;;;;0.00;0.00;;;;;12.11;81.52;101124.56;5058807;28;45356;-65
2023/12/22 09:05:32;;;;;;;;;2.00;0.00;;;;;12.13;81.58;101128.94;5058400;28;45518;-65
2023/12/22 09:08:06;;;;;;;;;1.00;1.00;;;;;12.19;81.21;101136.81;5045535;28;45807;-65
2023/12/22 09:10:35;;;;;;;;;2.00;0.00;;;;;12.15;81.23;101129.84;5059592;28;46253;-66
2023/12/22 09:13:01;;;;;;;;;0.00;0.00;;;;;12.13;81.28;101136.81;5059950;28;45554;-68
2023/12/22 09:15:30;;;;;;;;;0.00;0.00;;;;;11.84;81.27;101071.97;5059192;28;45361;-76
2023/12/22 09:17:57;;;;;;;;;1.67;0.33;;;;;12.28;80.74;101113.19;5052887;28;46368;-67
2023/12/22 09:20:25;;;;;;;;;0.00;0.00;;;;;12.58;78.82;101127.25;5049387;28;45400;-64
2023/12/22 09:22:54;;;;;;;;;1.33;0.67;;;;;12.94;77.74;101117.56;5054492;28;45476;-68
2023/12/22 09:25:22;;;;;;;;;1.00;1.00;;;;;14.06;74.48;101111.03;5048458;28;45444;-72
2023/12/22 09:27:57;;;;;;;;;0.67;0.00;;;;;15.50;69.57;101119.41;5055987;28;45472;-70
2023/12/22 09:31:05;;;;;;;;;1.00;1.00;;;;;15.39;66.64;101122.16;5059457;28;45508;-71
2023/12/22 09:33:31;;;;;;;;;1.33;1.00;;;;;14.91;67.29;101137.63;5037015;28;45467;-68
2023/12/22 09:35:57;;;;;;;;;3.00;0.00;;;;;14.41;67.92;101105.50;5058571;28;45428;-67
2023/12/22 09:38:25;;;;;;;;;1.00;1.00;;;;;14.30;68.82;101129.28;5058349;28;45375;-64
2023/12/22 09:40:52;;;;;;;;;2.33;0.33;;;;;13.73;69.76;101084.88;5058354;28;45603;-67
2023/12/22 09:43:23;;;;;;;;;1.00;0.00;;;;;13.89;69.99;101151.50;5056578;28;45446;-65
2023/12/22 09:45:49;;;;;;;;;3.33;0.67;;;;;13.61;72.47;101141.97;5058344;28;45402;-65
2023/12/22 09:48:17;;;;;;;;;1.00;1.00;;;;;13.48;72.06;101128.88;5058169;28;45314;-65
2023/12/22 09:50:46;;;;;;;;;1.00;0.00;;;;;13.33;72.55;101140.28;5059005;28;46661;-65
2023/12/22 09:53:13;;;;;;;;;0.00;0.00;;;;;13.19;73.06;101136.78;5057626;28;45476;-65
2023/12/22 09:55:45;;;;;;;;;1.00;0.00;;;;;13.14;73.79;101138.56;5041812;28;46148;-66
2023/12/22 09:58:13;;;;;;;;;0.00;0.00;;;;;13.11;74.12;101136.81;5047214;28;45582;-68
2023/12/22 10:00:40;;;;;;;;;0.00;0.00;;;;;12.80;74.30;101093.06;5042241;28;47779;-66
2023/12/22 10:03:07;;;;;;;;;0.00;0.00;;;;;13.22;73.52;101143.81;5057283;28;45415;-66
2023/12/22 10:05:33;;;;;;;;;0.00;0.00;;;;;12.99;73.40;101094.78;5058062;28;45384;-69
2023/12/22 10:08:01;;;;;;;;;0.00;0.00;;;;;13.29;73.54;101145.59;5058458;28;45450;-68
2023/12/22 10:10:32;;;;;;;;;1.00;0.00;;;;;13.09;73.16;101132.44;5056515;28;45384;-67
2023/12/22 10:12:59;;;;;;;;;0.00;0.00;;;;;13.07;73.43;101153.47;5045508;28;45613;-68
2023/12/22 10:15:24;;;;;;;;;1.33;0.00;;;;;12.87;75.96;101126.34;5057932;28;45282;-68
2023/12/22 10:17:54;;;;;;;;;0.00;0.00;;;;;12.95;75.60;101132.44;5057813;28;45638;-68
2023/12/22 10:20:20;;;;;;;;;0.00;0.00;;;;;13.05;75.24;101130.69;5056825;28;45393;-69
2023/12/22 10:22:52;;;;;;;;;0.00;0.00;;;;;13.12;73.63;101146.47;5057576;28;45458;-69
2023/12/22 10:25:27;;;;;;;;;0.67;0.67;;;;;12.94;73.20;101125.47;5056685;28;45410;-70
2023/12/22 10:27:56;;;;;;;;;0.00;0.00;;;;;12.68;74.22;101073.78;5058221;28;45406;-69
2023/12/22 10:30:24;;;;;;;;;2.00;1.00;;;;;13.06;72.78;101146.47;5057939;28;46017;-70
2023/12/22 10:32:56;;;;;;;;;1.33;0.33;;;;;12.77;73.05;101099.19;5059230;28;45350;-73
2023/12/22 10:35:23;;;;;;;;;1.67;0.67;;;;;12.98;72.91;101148.25;5059174;28;45368;-67
2023/12/22 10:37:52;;;;;;;;;1.67;1.67;;;;;12.86;72.84;101124.56;5057565;28;45496;-71
2023/12/22 10:40:22;;;;;;;;;2.00;2.00;;;;;13.04;72.71;101145.59;5057597;28;45568;-71
2023/12/22 10:42:48;;;;;;;;;2.00;1.00;;;;;12.27;73.01;101009.03;5055530;28;45583;-67
2023/12/22 10:45:17;;;;;;;;;1.33;0.00;;;;;13.04;72.87;101156.09;5050633;28;45519;-70
2023/12/22 10:47:43;;;;;;;;;1.00;0.00;;;;;12.26;72.93;101025.66;5054476;28;45467;-69
2023/12/22 10:50:13;;;;;;;;;0.50;0.50;;;;;13.02;73.31;101147.34;5055693;28;47600;-72
2023/12/22 10:52:39;;;;;;;;;0.33;0.33;;;;;12.86;74.00;101128.09;5057481;28;45507;-75
2023/12/22 10:55:04;;;;;;;;;0.00;0.00;;;;;12.91;74.82;101134.22;5058035;28;45447;-75
2023/12/22 10:57:37;;;;;;;;;3.00;0.33;;;;;12.85;75.24;101128.09;5054634;28;45488;-69
2023/12/22 11:00:07;;;;;;;;;1.67;1.00;;;;;12.66;75.60;101095.69;5054356;28;45811;-68
2023/12/22 11:02:34;;;;;;;;;2.00;1.00;;;;;12.76;76.13;101115.81;5055050;28;45368;-70
2023/12/22 11:05:05;;;;;;;;;1.67;0.00;;;;;12.69;76.72;101111.44;5049841;28;45437;-65
2023/12/22 11:07:37;;;;;;;;;4.00;1.00;;;;;12.58;77.10;101102.72;5055702;28;45887;-67
2023/12/22 11:10:08;;;;;;;;;0.67;0.67;;;;;12.76;76.65;101128.09;5055961;28;45458;-68
2023/12/22 11:12:36;;;;;;;;;0.67;0.00;;;;;12.20;77.36;101044.06;5055033;28;45688;-68
2023/12/22 11:15:08;;;;;;;;;1.00;0.67;;;;;12.67;77.74;101127.25;5057531;28;45664;-70
2023/12/22 11:17:39;;;;;;;;;3.33;1.00;;;;;12.62;78.00;101126.34;5060698;28;45596;-70
2023/12/22 11:20:08;;;;;;;;;2.00;0.00;;;;;12.58;78.08;101132.50;5061623;28;47584;-79
2023/12/22 11:22:38;;;;;;;;;5.00;2.00;;;;;12.32;78.31;101079.94;5059154;27;45631;-69
2023/12/22 11:25:04;;;;;;;;;3.00;1.00;;;;;12.47;78.25;101105.34;5055795;28;45519;-66
2023/12/22 11:27:37;;;;;;;;;3.00;1.33;;;;;12.57;78.38;101128.09;5054768;28;45687;-68